Aeroporto :
LOGIN :

Iscrizione | Disclaimer

   EN    FR    IT 

 










Sommario :    VFR   VFR Marginale   IFR   IFR Intensivo   IFR Molto Intensivo
Visibilità : 
Base nubi : 
>= 8 km
>= 3000ft
5 / 8 km
1000 / 3000 ft
1500m / 5 km
500 / 1000 ft
800 / 1500m
200 / 500 ft
< 800m
< 200 ft
Simboli :   Temporali  Nebbia  Neve Forte  Precipitazioni Forti  Vento > 20 kt
SIGMETs :   Varie  Temporali  Ghiacco  Turbolenza  Onda orograficha  Ceneri Vulcaniche







- Altitudine del aeroporto : 464 ft
- Codice IATA : EVX
- Carte del aeroporto


LFOE - Evreux

ULTIMO METAR :
  • 261130Z AUTO 04014KT CAVOK 29/20 Q1022 NOSIG

METARs OBSOLETI :
  • 261100Z AUTO 04012KT 010V070 CAVOK 29/20 Q1022 NOSIG
  • 261030Z AUTO 05010KT 360V070 CAVOK 28/19 Q1023 NOSIG
  • 261000Z AUTO 02009KT 340V050 CAVOK 27/19 Q1023 NOSIG
  • 260930Z AUTO 04009KT 360V070 CAVOK 26/19 Q1023 NOSIG
  • 260900Z AUTO 05010KT 9000 NSC 25/18 Q1023 NOSIG

TAF TAF LFOE
Valido dal 26 a 09 ore il 27 a 09 ore UTC


260800Z 2609/2709 05012G22KT CAVOK
Nessun NOTAM noto per questo aeroporto.



MetMap, La meteo Aeronautica in un colpo d'occhio ! - Copyright ORBIFLY Dicembre 2007 - Disclaimer

ORBIFLY MET'MAP TEAM :

Programmazione e sviluppo : Alexandra Zaïnal
Concezione e sviluppo : Baudouin d'Aumeries
Co-Programmazione e sviluppo : Marc-Olivier Méhu
Supporto tecnico e logistico : Manuel Goepfert
Aiuto per la traduzione : Arnaldo La Scala

Contatto : metmap@orbifly.com




FONTI E CREDITI :

   NOAA